createdAt,value
2019-01-30T00:02:22.131Z,87.79
2019-01-30T00:04:52.628Z,88.06
2019-01-30T00:07:23.078Z,87.91
2019-01-30T00:09:53.528Z,87.66
2019-01-30T00:12:23.982Z,87.67
2019-01-30T00:14:54.465Z,87.39
2019-01-30T00:17:24.894Z,87.14
2019-01-30T00:19:55.364Z,87.15
2019-01-30T00:22:25.809Z,87.24
2019-01-30T00:24:56.263Z,87.36
2019-01-30T00:27:26.640Z,87.26
2019-01-30T00:30:03.921Z,87.76
2019-01-30T00:32:29.670Z,88.61
2019-01-30T00:35:00.298Z,89.17
2019-01-30T00:37:30.680Z,88.97
2019-01-30T00:40:01.259Z,88.59
2019-01-30T00:42:31.736Z,88.28
2019-01-30T00:45:02.205Z,88.08
2019-01-30T00:47:34.927Z,87.83
2019-01-30T00:50:05.497Z,88.05
2019-01-30T00:52:36.029Z,88.00
2019-01-30T00:55:06.972Z,88.03
2019-01-30T00:57:37.393Z,88.26
2019-01-30T01:00:14.624Z,88.34
2019-01-30T01:02:43.468Z,88.61
2019-01-30T01:05:15.233Z,88.92
2019-01-30T01:07:45.672Z,89.10
2019-01-30T01:10:16.732Z,88.66
2019-01-30T01:12:47.150Z,88.70
2019-01-30T01:15:17.624Z,88.81
2019-01-30T01:17:48.051Z,89.05
2019-01-30T01:20:18.541Z,88.66
2019-01-30T01:22:48.996Z,88.06
2019-01-30T01:25:19.436Z,88.15
2019-01-30T01:27:49.896Z,88.57
2019-01-30T01:30:25.800Z,89.32
2019-01-30T01:32:56.381Z,89.41
2019-01-30T01:35:26.871Z,89.14
2019-01-30T01:37:57.337Z,88.80
2019-01-30T01:40:27.872Z,89.29
2019-01-30T01:42:58.330Z,89.36
2019-01-30T01:45:28.756Z,89.77
2019-01-30T01:47:59.120Z,89.73
2019-01-30T01:50:29.462Z,90.53
2019-01-30T01:52:59.904Z,91.02
2019-01-30T01:55:30.743Z,90.81
2019-01-30T01:58:01.188Z,89.77
2019-01-30T02:00:35.661Z,89.02
2019-01-30T02:03:03.763Z,88.61
2019-01-30T02:05:34.236Z,88.76
2019-01-30T02:08:04.705Z,89.39
2019-01-30T02:10:35.788Z,89.53
2019-01-30T02:13:06.330Z,89.09
2019-01-30T02:15:36.758Z,88.59
2019-01-30T02:18:08.577Z,87.28
2019-01-30T02:20:39.174Z,87.58
2019-01-30T02:23:09.598Z,88.07
2019-01-30T02:25:40.010Z,88.42
2019-01-30T02:28:10.443Z,88.20
2019-01-30T02:30:47.546Z,87.59
2019-01-30T02:33:13.057Z,88.11
2019-01-30T02:35:43.425Z,87.42
2019-01-30T02:38:13.890Z,87.56
2019-01-30T02:40:44.337Z,88.10
2019-01-30T02:43:14.790Z,87.99
2019-01-30T02:45:45.293Z,87.68
2019-01-30T02:48:15.736Z,87.31
2019-01-30T02:50:46.101Z,87.70
2019-01-30T02:53:16.551Z,87.78
2019-01-30T02:55:47.003Z,88.16
2019-01-30T02:58:17.422Z,88.51
2019-01-30T03:00:58.532Z,88.13
2019-01-30T03:03:19.991Z,88.48
2019-01-30T03:05:50.469Z,88.43
2019-01-30T03:08:20.911Z,88.93
2019-01-30T03:10:51.333Z,88.87
2019-01-30T03:13:21.792Z,88.50
2019-01-30T03:15:52.250Z,88.63
2019-01-30T03:18:22.678Z,88.46
2019-01-30T03:20:53.108Z,88.21
2019-01-30T03:23:23.578Z,88.22
2019-01-30T03:25:54.013Z,88.28
2019-01-30T03:28:24.446Z,88.61
2019-01-30T03:30:54.893Z,89.51
2019-01-30T03:33:25.329Z,90.50
2019-01-30T03:35:55.727Z,90.71
2019-01-30T03:38:26.183Z,90.57
2019-01-30T03:40:56.628Z,90.63
2019-01-30T03:43:27.058Z,90.58
2019-01-30T03:45:57.491Z,89.87
2019-01-30T03:48:27.933Z,89.68
2019-01-30T03:50:58.297Z,89.33
2019-01-30T03:53:28.829Z,88.88
2019-01-30T03:55:59.293Z,88.81
2019-01-30T03:58:29.741Z,88.82
2019-01-30T04:01:00.191Z,88.57
2019-01-30T04:03:30.633Z,89.02
2019-01-30T04:06:01.089Z,88.43
2019-01-30T04:08:31.462Z,88.22
2019-01-30T04:11:01.837Z,88.15
2019-01-30T04:13:32.297Z,88.08
2019-01-30T04:16:02.711Z,88.62
2019-01-30T04:18:33.149Z,89.21
2019-01-30T04:21:03.573Z,89.17
2019-01-30T04:23:34.011Z,89.24
2019-01-30T04:26:04.455Z,89.19
2019-01-30T04:28:34.984Z,89.34
2019-01-30T04:31:05.414Z,88.31
2019-01-30T04:33:35.853Z,88.79
2019-01-30T04:36:06.257Z,88.63
2019-01-30T04:38:36.706Z,87.89
2019-01-30T04:41:07.134Z,88.31
2019-01-30T04:43:37.575Z,88.00
2019-01-30T04:46:08.002Z,87.78
2019-01-30T04:48:38.447Z,87.74
2019-01-30T04:51:08.911Z,87.16
2019-01-30T04:53:39.351Z,87.17
2019-01-30T04:56:09.811Z,86.69
2019-01-30T04:58:40.253Z,87.25
2019-01-30T05:01:11.654Z,87.56
2019-01-30T05:03:42.105Z,87.83
2019-01-30T05:06:12.578Z,87.81
2019-01-30T05:08:42.991Z,88.43
2019-01-30T05:11:13.460Z,88.30
2019-01-30T05:13:44.364Z,88.22
2019-01-30T05:16:14.759Z,88.19
2019-01-30T05:18:45.232Z,87.93
2019-01-30T05:21:15.687Z,87.02
2019-01-30T05:23:46.140Z,87.27
2019-01-30T05:26:16.578Z,86.77
2019-01-30T05:28:47.036Z,86.76
2019-01-30T05:31:17.512Z,88.10
2019-01-30T05:33:48.375Z,88.27
2019-01-30T05:36:18.816Z,87.70
2019-01-30T05:38:49.360Z,87.10
2019-01-30T05:41:20.011Z,87.29
2019-01-30T05:43:50.462Z,88.00
2019-01-30T05:46:20.912Z,88.53
2019-01-30T05:48:51.432Z,87.61
2019-01-30T05:51:21.913Z,88.19
2019-01-30T05:53:52.401Z,87.19
2019-01-30T05:56:22.850Z,87.78
2019-01-30T05:58:53.575Z,87.69
2019-01-30T06:01:24.016Z,86.67
2019-01-30T06:03:54.470Z,86.75
2019-01-30T06:06:24.943Z,86.44
2019-01-30T06:08:55.435Z,87.49
2019-01-30T06:11:25.887Z,87.48
2019-01-30T06:13:56.381Z,86.67
2019-01-30T06:16:26.824Z,87.09
2019-01-30T06:18:57.278Z,87.95
2019-01-30T06:21:27.652Z,88.81
2019-01-30T06:23:58.122Z,88.98
2019-01-30T06:26:28.497Z,88.60
2019-01-30T06:28:58.945Z,89.06
2019-01-30T06:31:29.415Z,88.91
2019-01-30T06:33:59.824Z,88.32
2019-01-30T06:36:30.331Z,87.70
2019-01-30T06:39:00.768Z,87.33
2019-01-30T06:41:32.423Z,86.87
2019-01-30T06:44:02.900Z,86.95
2019-01-30T06:46:33.298Z,87.65
2019-01-30T06:49:03.769Z,87.89
2019-01-30T06:51:34.228Z,87.42
2019-01-30T06:54:04.698Z,86.61
2019-01-30T06:56:35.154Z,85.89
2019-01-30T06:59:05.613Z,86.56
2019-01-30T07:01:35.996Z,86.46
2019-01-30T07:04:06.468Z,86.07
2019-01-30T07:06:36.911Z,85.76
2019-01-30T07:09:10.807Z,85.75
2019-01-30T07:11:41.282Z,85.62
2019-01-30T07:14:11.759Z,84.58
2019-01-30T07:16:42.785Z,85.14
2019-01-30T07:19:13.826Z,84.54
2019-01-30T07:21:44.912Z,84.43
2019-01-30T07:24:15.962Z,83.32
2019-01-30T07:26:47.003Z,82.86
2019-01-30T07:29:18.049Z,82.70
2019-01-30T07:31:49.101Z,83.02
2019-01-30T07:34:21.152Z,83.06
2019-01-30T07:36:52.243Z,83.68
2019-01-30T07:39:23.281Z,83.58
2019-01-30T07:41:54.312Z,83.49
2019-01-30T07:44:25.361Z,83.63
2019-01-30T07:46:56.430Z,83.13
2019-01-30T07:49:27.535Z,83.10
2019-01-30T07:51:58.597Z,82.88
2019-01-30T07:54:29.645Z,82.97
2019-01-30T07:57:00.700Z,82.85
2019-01-30T07:59:32.171Z,83.36
2019-01-30T08:02:03.190Z,83.61
2019-01-30T08:04:34.262Z,83.65
2019-01-30T08:07:05.313Z,83.52
2019-01-30T08:09:36.328Z,83.40
2019-01-30T08:12:07.609Z,83.12
2019-01-30T08:14:38.677Z,83.82
2019-01-30T08:17:09.692Z,84.22
2019-01-30T08:19:40.756Z,83.26
2019-01-30T08:22:11.823Z,83.23
2019-01-30T08:24:43.096Z,82.40
2019-01-30T08:27:14.494Z,80.84
2019-01-30T08:29:46.940Z,80.42
2019-01-30T08:32:18.004Z,80.82
2019-01-30T08:34:49.060Z,81.17
2019-01-30T08:37:20.084Z,80.63
2019-01-30T08:39:51.142Z,80.09
2019-01-30T08:42:22.164Z,81.49
2019-01-30T08:44:53.216Z,80.94
2019-01-30T08:47:24.264Z,78.86
2019-01-30T08:49:55.314Z,78.33
2019-01-30T08:52:26.346Z,79.36
2019-01-30T08:54:57.386Z,79.17
2019-01-30T08:57:28.446Z,79.51
2019-01-30T08:59:59.470Z,79.04
2019-01-30T09:02:30.525Z,78.79
2019-01-30T09:05:01.564Z,78.88
2019-01-30T09:07:43.573Z,79.56
2019-01-30T09:10:06.615Z,78.60
2019-01-30T09:12:37.662Z,78.10
2019-01-30T09:15:10.109Z,79.43
2019-01-30T09:17:41.159Z,77.61
2019-01-30T09:20:14.607Z,79.03
2019-01-30T09:22:45.653Z,79.35
2019-01-30T09:25:18.487Z,76.89
2019-01-30T09:27:50.038Z,75.85
2019-01-30T09:30:23.278Z,75.65
2019-01-30T09:32:55.501Z,75.66
2019-01-30T09:35:26.847Z,76.16
2019-01-30T09:37:57.868Z,75.66
2019-01-30T09:40:28.957Z,76.72
2019-01-30T09:43:00.010Z,76.03
2019-01-30T09:45:31.043Z,76.67
2019-01-30T09:48:02.069Z,76.04
2019-01-30T09:50:34.311Z,76.68
2019-01-30T09:53:07.348Z,76.44
2019-01-30T09:55:38.379Z,76.02
2019-01-30T09:58:09.385Z,75.81
2019-01-30T10:00:40.531Z,76.25
2019-01-30T10:03:11.732Z,75.51
2019-01-30T10:05:42.687Z,74.65
2019-01-30T10:08:13.744Z,74.79
2019-01-30T10:10:44.814Z,73.93
2019-01-30T10:13:15.870Z,73.36
2019-01-30T10:15:47.804Z,73.74
2019-01-30T10:18:18.794Z,73.84
2019-01-30T10:20:49.844Z,72.98
2019-01-30T10:23:20.861Z,72.97
2019-01-30T10:25:51.894Z,73.27
2019-01-30T10:28:22.934Z,72.81
2019-01-30T10:30:53.978Z,72.30
2019-01-30T10:33:24.980Z,72.10
2019-01-30T10:35:56.038Z,72.51
2019-01-30T10:38:27.092Z,72.36
2019-01-30T10:40:58.106Z,72.35
2019-01-30T10:43:29.162Z,72.77
2019-01-30T10:46:01.249Z,73.44
2019-01-30T10:48:32.289Z,72.10
2019-01-30T10:51:03.330Z,72.41
2019-01-30T10:53:34.392Z,73.13
2019-01-30T10:56:05.430Z,73.89
2019-01-30T10:58:36.455Z,72.70
2019-01-30T11:01:07.494Z,72.27
2019-01-30T11:03:38.814Z,72.95
2019-01-30T11:06:09.883Z,70.71
2019-01-30T11:08:40.891Z,71.20
2019-01-30T11:11:11.949Z,70.68
2019-01-30T11:13:42.994Z,71.89
2019-01-30T11:16:14.094Z,70.75
2019-01-30T11:18:45.077Z,70.64
2019-01-30T11:21:16.165Z,70.81
2019-01-30T11:23:47.187Z,69.89
2019-01-30T11:26:18.249Z,69.36
2019-01-30T11:28:49.273Z,69.34
2019-01-30T11:31:20.349Z,68.18
2019-01-30T11:33:51.438Z,67.20
2019-01-30T11:36:22.468Z,67.18
2019-01-30T11:38:53.558Z,66.58
2019-01-30T11:41:24.608Z,66.00
2019-01-30T11:43:55.646Z,67.46
2019-01-30T11:46:26.694Z,67.60
2019-01-30T11:48:57.739Z,65.45
2019-01-30T11:51:28.750Z,64.09
2019-01-30T11:53:59.813Z,63.08
2019-01-30T11:56:31.134Z,63.43
2019-01-30T11:59:02.193Z,62.69
2019-01-30T12:01:33.232Z,63.70
2019-01-30T12:04:04.205Z,63.73
2019-01-30T12:06:35.168Z,63.57
2019-01-30T12:09:08.192Z,64.39
2019-01-30T12:11:39.243Z,65.16
2019-01-30T12:14:10.291Z,65.43
2019-01-30T12:16:41.284Z,66.28
2019-01-30T12:19:12.326Z,67.34
2019-01-30T12:21:43.361Z,67.04
2019-01-30T12:24:14.436Z,66.51
2019-01-30T12:26:45.472Z,66.33
2019-01-30T12:29:17.571Z,66.35
2019-01-30T12:31:48.618Z,65.52
2019-01-30T12:34:28.153Z,64.88
2019-01-30T12:36:52.271Z,64.98
2019-01-30T12:39:23.295Z,64.10
2019-01-30T12:41:54.341Z,62.62
2019-01-30T12:44:25.427Z,59.98
2019-01-30T12:46:56.469Z,59.91
2019-01-30T12:49:27.489Z,59.77
2019-01-30T12:51:58.526Z,59.66
2019-01-30T12:54:29.577Z,59.63
2019-01-30T12:57:00.595Z,60.23
2019-01-30T12:59:31.623Z,60.75
2019-01-30T13:02:02.631Z,60.25
2019-01-30T13:04:38.906Z,60.91
2019-01-30T13:07:06.398Z,61.41
2019-01-30T13:09:37.426Z,61.67
2019-01-30T13:12:08.510Z,61.58
2019-01-30T13:14:39.533Z,62.11
2019-01-30T13:17:10.638Z,61.98
2019-01-30T13:19:41.767Z,62.38
2019-01-30T13:22:12.717Z,62.92
2019-01-30T13:24:43.755Z,62.86
2019-01-30T13:27:14.781Z,63.01
2019-01-30T13:29:45.817Z,62.55
2019-01-30T13:32:16.966Z,62.59
2019-01-30T13:34:48.934Z,63.00
2019-01-30T13:37:20.277Z,64.06
2019-01-30T13:39:51.300Z,63.56
2019-01-30T13:42:22.367Z,63.75
2019-01-30T13:44:53.400Z,63.63
2019-01-30T13:47:24.428Z,64.35
2019-01-30T13:49:55.451Z,64.28
2019-01-30T13:52:26.586Z,64.53
2019-01-30T13:54:57.579Z,63.75
2019-01-30T13:57:28.652Z,63.96
2019-01-30T13:59:59.677Z,63.74
2019-01-30T14:02:30.725Z,63.30
2019-01-30T14:05:01.790Z,64.04
2019-01-30T14:07:32.818Z,64.33
2019-01-30T14:10:03.881Z,64.67
2019-01-30T14:12:34.958Z,64.78
2019-01-30T14:15:06.688Z,65.25
2019-01-30T14:17:37.698Z,65.12
2019-01-30T14:20:09.547Z,65.25
2019-01-30T14:22:40.556Z,65.41
2019-01-30T14:25:12.145Z,65.29
2019-01-30T14:27:43.234Z,65.89
2019-01-30T14:30:17.537Z,65.83
2019-01-30T14:32:48.601Z,66.05
2019-01-30T14:35:19.714Z,66.47
2019-01-30T14:37:52.007Z,66.72
2019-01-30T14:40:23.215Z,67.05
2019-01-30T14:42:54.309Z,67.25
2019-01-30T14:45:25.370Z,68.37
2019-01-30T14:47:56.431Z,68.12
2019-01-30T14:50:27.500Z,68.77
2019-01-30T14:52:58.542Z,69.24
2019-01-30T14:55:29.867Z,68.75
2019-01-30T14:58:00.850Z,68.61
2019-01-30T15:00:32.663Z,68.29
2019-01-30T15:03:03.700Z,68.38
2019-01-30T15:05:34.694Z,68.63
2019-01-30T15:08:05.768Z,68.68
2019-01-30T15:10:36.805Z,68.86
2019-01-30T15:13:08.383Z,68.71
2019-01-30T15:15:39.401Z,69.67
2019-01-30T15:18:10.512Z,69.76
2019-01-30T15:20:41.540Z,70.48
2019-01-30T15:23:12.790Z,70.77
2019-01-30T15:25:43.853Z,70.99
2019-01-30T15:28:14.913Z,71.13
2019-01-30T15:30:47.845Z,70.97
2019-01-30T15:33:19.165Z,70.99
2019-01-30T15:35:50.214Z,71.15
2019-01-30T15:38:21.282Z,71.00
2019-01-30T15:40:52.328Z,70.90
2019-01-30T15:43:23.383Z,71.35
2019-01-30T15:45:54.424Z,71.23
2019-01-30T15:48:25.468Z,71.74
2019-01-30T15:50:56.520Z,71.98
2019-01-30T15:53:28.413Z,72.26
2019-01-30T15:55:59.466Z,72.74
2019-01-30T15:58:30.559Z,72.67
2019-01-30T16:01:12.410Z,72.47
2019-01-30T16:03:43.573Z,72.67
2019-01-30T16:06:14.625Z,72.69
2019-01-30T16:08:45.708Z,73.06
2019-01-30T16:11:16.769Z,73.15
2019-01-30T16:13:47.883Z,73.17
2019-01-30T16:16:19.374Z,73.61
2019-01-30T16:18:50.446Z,73.67
2019-01-30T16:21:21.506Z,73.77
2019-01-30T16:23:52.607Z,73.59
2019-01-30T16:26:23.629Z,74.06
2019-01-30T16:28:54.681Z,74.52
2019-01-30T16:31:25.844Z,74.41
2019-01-30T16:33:56.708Z,74.66
2019-01-30T16:36:27.862Z,74.80
2019-01-30T16:38:58.976Z,74.71
2019-01-30T16:41:29.952Z,74.99
2019-01-30T16:44:01.013Z,74.97
2019-01-30T16:46:32.081Z,75.43
2019-01-30T16:49:03.145Z,75.70
2019-01-30T16:51:35.233Z,75.67
2019-01-30T16:54:08.424Z,75.61
2019-01-30T16:56:39.488Z,75.95
2019-01-30T16:59:10.556Z,76.20
2019-01-30T17:01:41.642Z,76.12
2019-01-30T17:04:12.763Z,76.07
2019-01-30T17:06:44.935Z,76.59
2019-01-30T17:09:17.744Z,76.94
2019-01-30T17:11:48.833Z,77.16
2019-01-30T17:14:19.891Z,77.44
2019-01-30T17:16:50.939Z,77.85
2019-01-30T17:19:22.001Z,77.88
2019-01-30T17:21:53.092Z,78.13
2019-01-30T17:24:24.154Z,78.24
2019-01-30T17:26:55.218Z,78.01
2019-01-30T17:29:26.279Z,78.01
2019-01-30T17:31:57.345Z,77.91
2019-01-30T17:34:28.421Z,78.00
2019-01-30T17:36:59.582Z,77.83
2019-01-30T17:39:30.612Z,77.85
2019-01-30T17:42:01.699Z,77.88
2019-01-30T17:44:32.753Z,78.21
2019-01-30T17:47:03.812Z,78.02
2019-01-30T17:49:34.893Z,77.88
2019-01-30T17:52:05.973Z,77.42
2019-01-30T17:54:37.065Z,77.76
2019-01-30T17:57:08.131Z,77.75
2019-01-30T17:59:41.050Z,77.97
2019-01-30T18:02:12.245Z,78.14
2019-01-30T18:04:43.314Z,78.44
2019-01-30T18:07:14.440Z,78.68
2019-01-30T18:09:45.699Z,78.77
2019-01-30T18:12:16.758Z,78.82
2019-01-30T18:14:47.814Z,78.86
2019-01-30T18:17:18.944Z,78.77
2019-01-30T18:19:50.103Z,78.82
2019-01-30T18:22:21.177Z,78.86
2019-01-30T18:24:52.250Z,78.75
2019-01-30T18:27:23.364Z,78.75
2019-01-30T18:29:54.430Z,78.41
2019-01-30T18:32:25.530Z,78.59
2019-01-30T18:34:57.434Z,78.21
2019-01-30T18:37:28.324Z,77.80
2019-01-30T18:39:59.422Z,78.34
2019-01-30T18:42:30.521Z,78.70
2019-01-30T18:45:01.812Z,79.10
2019-01-30T18:47:32.915Z,79.30
2019-01-30T18:50:04.333Z,79.67
2019-01-30T18:52:35.469Z,79.96
2019-01-30T18:55:07.077Z,80.20
2019-01-30T18:57:38.191Z,80.20
2019-01-30T19:00:13.957Z,80.37
2019-01-30T19:02:45.018Z,80.58
2019-01-30T19:05:16.131Z,80.77
2019-01-30T19:07:47.273Z,81.09
2019-01-30T19:10:18.755Z,81.41
2019-01-30T19:12:50.183Z,81.83
2019-01-30T19:15:22.643Z,81.75
2019-01-30T19:17:53.997Z,81.48
2019-01-30T19:20:36.195Z,80.96
2019-01-30T19:23:07.287Z,80.83
2019-01-30T19:25:38.382Z,80.56
2019-01-30T19:28:09.651Z,80.40
2019-01-30T19:30:40.707Z,80.56
2019-01-30T19:33:11.930Z,81.31
2019-01-30T19:35:45.440Z,81.52
2019-01-30T19:38:16.590Z,81.60
2019-01-30T19:40:49.204Z,81.69
2019-01-30T19:43:20.259Z,81.71
2019-01-30T19:45:51.389Z,81.82
2019-01-30T19:48:22.513Z,81.84
2019-01-30T19:50:54.198Z,81.82
2019-01-30T19:53:25.303Z,82.21
2019-01-30T19:55:56.375Z,82.34
2019-01-30T19:58:28.456Z,82.27
2019-01-30T20:01:00.014Z,82.04
2019-01-30T20:03:33.118Z,81.64
2019-01-30T20:06:04.215Z,81.59
2019-01-30T20:08:35.370Z,81.59
2019-01-30T20:11:06.336Z,81.15
2019-01-30T20:13:37.439Z,81.29
2019-01-30T20:16:08.583Z,81.27
2019-01-30T20:18:39.732Z,81.49
2019-01-30T20:21:11.114Z,81.78
2019-01-30T20:23:42.203Z,81.77
2019-01-30T20:26:13.399Z,81.68
2019-01-30T20:28:45.596Z,81.84
2019-01-30T20:31:17.181Z,81.78
2019-01-30T20:33:48.243Z,82.00
2019-01-30T20:36:19.366Z,82.01
2019-01-30T20:38:50.511Z,82.26
2019-01-30T20:41:21.637Z,81.97
2019-01-30T20:43:52.717Z,82.07
2019-01-30T20:46:23.860Z,82.03
2019-01-30T20:48:54.937Z,81.86
2019-01-30T20:51:26.033Z,82.08
2019-01-30T20:53:57.156Z,81.90
2019-01-30T20:56:28.229Z,82.07
2019-01-30T20:58:59.285Z,82.00
2019-01-30T21:01:30.370Z,82.01
2019-01-30T21:04:01.449Z,82.09
2019-01-30T21:06:32.507Z,82.70
2019-01-30T21:09:04.569Z,82.73
2019-01-30T21:11:35.641Z,82.76
2019-01-30T21:14:06.749Z,82.85
2019-01-30T21:16:37.821Z,83.46
2019-01-30T21:19:08.891Z,83.04
2019-01-30T21:21:39.980Z,83.89
2019-01-30T21:24:11.097Z,84.41
2019-01-30T21:26:42.192Z,84.82
2019-01-30T21:29:13.379Z,85.16
2019-01-30T21:31:44.572Z,85.56
2019-01-30T21:34:15.589Z,86.07
2019-01-30T21:36:46.666Z,86.33
2019-01-30T21:39:17.788Z,86.51
2019-01-30T21:41:49.159Z,86.81
2019-01-30T21:44:20.302Z,86.94
2019-01-30T21:46:51.419Z,87.12
2019-01-30T21:49:22.597Z,86.72
2019-01-30T21:51:53.697Z,86.53
2019-01-30T21:54:24.830Z,85.90
2019-01-30T21:56:55.952Z,85.72
2019-01-30T21:59:27.137Z,85.98
2019-01-30T22:02:08.132Z,85.89
2019-01-30T22:04:31.326Z,86.13
2019-01-30T22:07:03.470Z,86.16
2019-01-30T22:09:34.601Z,85.98
2019-01-30T22:12:05.704Z,85.92
2019-01-30T22:14:36.928Z,85.35
2019-01-30T22:17:08.036Z,85.21
2019-01-30T22:19:39.146Z,85.56
2019-01-30T22:22:10.218Z,85.39
2019-01-30T22:24:41.349Z,85.60
2019-01-30T22:27:12.453Z,85.85
2019-01-30T22:29:43.601Z,85.43
2019-01-30T22:32:14.708Z,84.97
2019-01-30T22:34:45.870Z,84.98
2019-01-30T22:37:16.993Z,85.39
2019-01-30T22:39:48.081Z,85.04
2019-01-30T22:42:19.155Z,84.95
2019-01-30T22:44:50.251Z,84.82
2019-01-30T22:47:21.336Z,84.60
2019-01-30T22:49:52.454Z,84.88
2019-01-30T22:52:23.528Z,84.64
2019-01-30T22:54:54.607Z,84.68
2019-01-30T22:57:25.700Z,84.39
2019-01-30T22:59:56.781Z,84.22
2019-01-30T23:02:28.327Z,84.46
2019-01-30T23:05:24.680Z,84.06
2019-01-30T23:08:23.566Z,84.22
2019-01-30T23:11:26.444Z,84.44
2019-01-30T23:14:02.790Z,84.55
2019-01-30T23:17:18.529Z,84.40
2019-01-30T23:20:15.730Z,84.42
2019-01-30T23:23:20.882Z,84.41
2019-01-30T23:26:13.603Z,84.70
2019-01-30T23:29:13.739Z,84.89
2019-01-30T23:32:28.204Z,84.93
2019-01-30T23:35:36.040Z,85.17
2019-01-30T23:38:45.840Z,85.15
2019-01-30T23:41:53.717Z,85.48
2019-01-30T23:44:43.624Z,85.71
2019-01-30T23:47:42.186Z,85.77
2019-01-30T23:50:22.477Z,85.88
2019-01-30T23:53:28.093Z,86.03
2019-01-30T23:56:13.647Z,85.83
2019-01-30T23:59:20.272Z,85.96
